createdAt,value
2022-11-16T00:00:58.922Z,100215.16
2022-11-16T00:03:26.196Z,100216.75
2022-11-16T00:05:56.679Z,100208.81
2022-11-16T00:08:25.469Z,100208.03
2022-11-16T00:10:52.768Z,100206.78
2022-11-16T00:13:20.583Z,100201.19
2022-11-16T00:15:55.224Z,100196.88
2022-11-16T00:18:22.589Z,100203.41
2022-11-16T00:20:49.981Z,100195.31
2022-11-16T00:23:17.345Z,100203.72
2022-11-16T00:25:46.233Z,100203.56
2022-11-16T00:28:13.827Z,100200.91
2022-11-16T00:30:41.185Z,100200.75
2022-11-16T00:33:13.303Z,100202.44
2022-11-16T00:35:41.026Z,100200.59
2022-11-16T00:38:08.311Z,100195.50
2022-11-16T00:40:35.971Z,100187.84
2022-11-16T00:43:04.602Z,100189.75
2022-11-16T00:45:31.790Z,100181.06
2022-11-16T00:48:00.658Z,100187.75
2022-11-16T00:50:28.921Z,100178.75
2022-11-16T00:52:56.540Z,100181.38
2022-11-16T00:55:24.480Z,100186.38
2022-11-16T00:57:51.868Z,100185.13
2022-11-16T01:00:22.630Z,100178.91
2022-11-16T01:02:51.031Z,100175.81
2022-11-16T01:05:18.767Z,100174.56
2022-11-16T01:07:46.200Z,100178.91
2022-11-16T01:10:15.798Z,100177.22
2022-11-16T01:12:44.464Z,100171.31
2022-11-16T01:15:11.895Z,100170.09
2022-11-16T01:17:41.347Z,100168.50
2022-11-16T01:20:13.236Z,100173.31
2022-11-16T01:22:41.244Z,100171.78
2022-11-16T01:25:09.911Z,100161.88
2022-11-16T01:27:37.900Z,100161.56
2022-11-16T01:30:10.324Z,100164.66
2022-11-16T01:32:42.586Z,100158.59
2022-11-16T01:35:14.299Z,100157.34
2022-11-16T01:37:41.631Z,100161.41
2022-11-16T01:40:10.677Z,100151.75
2022-11-16T01:42:39.105Z,100156.56
2022-11-16T01:45:19.355Z,100146.97
2022-11-16T01:47:48.490Z,100149.44
2022-11-16T01:50:20.660Z,100144.78
2022-11-16T01:52:54.142Z,100138.91
2022-11-16T01:55:23.520Z,100143.22
2022-11-16T01:58:18.377Z,100132.38
2022-11-16T02:00:48.471Z,100134.72
2022-11-16T02:03:30.729Z,100127.56
2022-11-16T02:06:15.458Z,100135.31
2022-11-16T02:09:00.771Z,100132.69
2022-11-16T02:11:49.955Z,100126.78
2022-11-16T02:14:30.814Z,100125.25
2022-11-16T02:17:10.539Z,100119.66
2022-11-16T02:20:00.375Z,100110.97
2022-11-16T02:22:44.878Z,100117.34
2022-11-16T02:25:22.066Z,100113.47
2022-11-16T02:28:13.032Z,100110.19
2022-11-16T02:30:45.662Z,100111.91
2022-11-16T02:33:18.204Z,100109.44
2022-11-16T02:35:50.569Z,100109.44
2022-11-16T02:38:24.162Z,100110.97
2022-11-16T02:40:55.434Z,100119.50
2022-11-16T02:43:31.741Z,100109.44
2022-11-16T02:46:05.304Z,100120.28
2022-11-16T02:48:37.013Z,100111.59
2022-11-16T02:51:06.826Z,100109.44
2022-11-16T02:53:41.060Z,100110.06
2022-11-16T02:56:12.006Z,100109.41
2022-11-16T02:58:39.820Z,100099.66
2022-11-16T03:01:14.075Z,100098.09
2022-11-16T03:03:48.897Z,100103.38
2022-11-16T03:06:21.676Z,100094.84
2022-11-16T03:08:57.718Z,100109.56
2022-11-16T03:11:25.382Z,100110.97
2022-11-16T03:13:57.275Z,100111.25
2022-11-16T03:16:34.124Z,100113.41
2022-11-16T03:19:05.172Z,100116.69
2022-11-16T03:21:39.058Z,100114.63
2022-11-16T03:24:08.436Z,100122.22
2022-11-16T03:26:49.235Z,100116.00
2022-11-16T03:29:26.289Z,100128.53
2022-11-16T03:32:02.417Z,100126.66
2022-11-16T03:34:33.108Z,100129.41
2022-11-16T03:37:01.740Z,100124.44
2022-11-16T03:39:33.973Z,100133.41
2022-11-16T03:42:06.794Z,100145.16
2022-11-16T03:44:35.466Z,100168.38
2022-11-16T03:47:06.976Z,100179.19
2022-11-16T03:49:34.261Z,100198.22
2022-11-16T03:52:02.364Z,100204.06
2022-11-16T03:54:29.719Z,100225.56
2022-11-16T03:56:57.084Z,100236.09
2022-11-16T03:59:24.440Z,100252.16
2022-11-16T04:01:51.801Z,100266.66
2022-11-16T04:04:21.646Z,100269.78
2022-11-16T04:06:48.998Z,100289.81
2022-11-16T04:09:16.264Z,100283.94
2022-11-16T04:11:44.221Z,100300.34
2022-11-16T04:14:14.618Z,100307.00
2022-11-16T04:16:43.183Z,100307.44
2022-11-16T04:19:10.446Z,100316.38
2022-11-16T04:21:44.134Z,100321.28
2022-11-16T04:24:14.432Z,100331.66
2022-11-16T04:26:45.407Z,100335.78
2022-11-16T04:29:13.796Z,100345.38
2022-11-16T04:31:41.056Z,100338.22
2022-11-16T04:34:11.576Z,100353.28
2022-11-16T04:36:54.893Z,100348.50
2022-11-16T04:39:22.482Z,100347.84
2022-11-16T04:41:49.931Z,100347.84
2022-11-16T04:44:18.453Z,100337.59
2022-11-16T04:46:47.056Z,100340.72
2022-11-16T04:49:14.373Z,100349.84
2022-11-16T04:51:41.711Z,100339.22
2022-11-16T04:54:10.369Z,100340.59
2022-11-16T04:56:37.955Z,100332.25
2022-11-16T04:59:05.239Z,100326.69
2022-11-16T05:01:32.628Z,100341.03
2022-11-16T05:04:00.185Z,100330.66
2022-11-16T05:06:27.842Z,100339.59
2022-11-16T05:08:55.272Z,100344.59
2022-11-16T05:11:23.998Z,100338.72
2022-11-16T05:13:51.648Z,100338.72
2022-11-16T05:16:19.631Z,100330.47
2022-11-16T05:18:46.985Z,100336.16
2022-11-16T05:21:14.915Z,100330.25
2022-11-16T05:23:43.223Z,100331.47
2022-11-16T05:26:13.487Z,100335.84
2022-11-16T05:28:42.115Z,100320.91
2022-11-16T05:31:11.675Z,100326.47
2022-11-16T05:33:38.947Z,100319.38
2022-11-16T05:36:07.341Z,100317.03
2022-11-16T05:38:34.797Z,100313.13
2022-11-16T05:41:02.244Z,100319.03
2022-11-16T05:43:29.748Z,100307.56
2022-11-16T05:46:21.062Z,100311.59
2022-11-16T05:48:48.532Z,100295.78
2022-11-16T05:51:15.887Z,100308.59
2022-11-16T05:53:43.584Z,100311.50
2022-11-16T05:56:13.568Z,100316.72
2022-11-16T05:58:41.152Z,100308.81
2022-11-16T06:01:08.469Z,100300.94
2022-11-16T06:03:37.853Z,100296.56
2022-11-16T06:06:05.539Z,100304.16
2022-11-16T06:08:33.052Z,100307.38
2022-11-16T06:11:05.649Z,100310.75
2022-11-16T06:13:35.667Z,100301.16
2022-11-16T06:16:03.969Z,100302.50
2022-11-16T06:18:32.463Z,100296.50
2022-11-16T06:21:01.228Z,100302.06
2022-11-16T06:23:28.461Z,100292.94
2022-11-16T06:25:56.228Z,100298.94
2022-11-16T06:28:26.649Z,100296.59
2022-11-16T06:30:54.911Z,100295.03
2022-11-16T06:33:24.532Z,100290.25
2022-11-16T06:35:52.012Z,100291.16
2022-11-16T06:38:24.029Z,100292.06
2022-11-16T06:40:55.439Z,100292.69
2022-11-16T06:43:25.812Z,100287.81
2022-11-16T06:45:55.044Z,100285.47
2022-11-16T06:48:22.704Z,100286.81
2022-11-16T06:50:51.699Z,100275.38
2022-11-16T06:53:23.544Z,100279.69
2022-11-16T06:56:01.069Z,100276.91
2022-11-16T06:58:29.149Z,100280.59
2022-11-16T07:00:56.490Z,100272.91
2022-11-16T07:03:23.971Z,100282.38
2022-11-16T07:05:51.453Z,100272.44
2022-11-16T07:08:20.131Z,100265.00
2022-11-16T07:10:47.649Z,100266.88
2022-11-16T07:13:16.371Z,100265.13
2022-11-16T07:15:44.000Z,100255.91
2022-11-16T07:18:11.278Z,100257.56
2022-11-16T07:20:39.858Z,100264.66
2022-11-16T07:23:11.380Z,100269.13
2022-11-16T07:25:41.699Z,100283.81
2022-11-16T07:28:09.562Z,100281.03
2022-11-16T07:30:38.392Z,100281.91
2022-11-16T07:33:12.258Z,100287.38
2022-11-16T07:36:00.972Z,100300.19
2022-11-16T07:38:28.668Z,100304.94
2022-11-16T07:40:59.971Z,100303.81
2022-11-16T07:43:30.304Z,100303.63
2022-11-16T07:49:08.345Z,100311.63
2022-11-16T07:52:08.495Z,100311.84
2022-11-16T07:54:43.524Z,100331.75
2022-11-16T07:57:11.255Z,100331.09
2022-11-16T07:59:41.288Z,100346.22
2022-11-16T08:02:10.801Z,100350.09
2022-11-16T08:04:40.292Z,100354.22
2022-11-16T08:07:08.745Z,100363.44
2022-11-16T08:09:42.754Z,100374.97
2022-11-16T08:12:13.493Z,100377.75
2022-11-16T08:14:40.756Z,100389.44
2022-11-16T08:17:08.052Z,100390.31
2022-11-16T08:19:37.554Z,100397.09
2022-11-16T08:22:05.326Z,100415.31
2022-11-16T08:24:34.071Z,100418.22
2022-11-16T08:27:01.497Z,100428.44
2022-11-16T08:29:28.715Z,100431.66
2022-11-16T08:31:57.669Z,100426.66
2022-11-16T08:34:25.001Z,100436.78
2022-11-16T08:36:59.044Z,100443.66
2022-11-16T08:39:35.130Z,100449.56
2022-11-16T08:42:03.035Z,100456.88
2022-11-16T08:44:30.660Z,100461.75
2022-11-16T08:47:01.635Z,100469.91
2022-11-16T08:49:39.428Z,100485.00
2022-11-16T08:52:08.900Z,100495.44
2022-11-16T08:54:36.256Z,100505.16
2022-11-16T08:57:03.712Z,100521.13
2022-11-16T08:59:33.139Z,100529.47
2022-11-16T09:02:06.781Z,100533.81
2022-11-16T09:04:36.981Z,100550.34
2022-11-16T09:07:04.796Z,100559.44
2022-11-16T09:09:33.482Z,100570.31
2022-11-16T09:12:00.866Z,100577.06
2022-11-16T09:14:28.312Z,100592.09
2022-11-16T09:16:55.498Z,100588.72
2022-11-16T09:19:22.758Z,100596.03
2022-11-16T09:21:49.990Z,100617.38
2022-11-16T09:24:17.314Z,100626.91
2022-11-16T09:26:45.931Z,100645.66
2022-11-16T09:29:14.933Z,100654.16
2022-11-16T09:31:42.609Z,100666.81
2022-11-16T09:34:09.900Z,100678.81
2022-11-16T09:36:37.355Z,100679.69
2022-11-16T09:42:02.761Z,100714.63
2022-11-16T09:44:58.123Z,100733.34
2022-11-16T09:47:39.326Z,100742.34
2022-11-16T09:50:12.509Z,100748.41
2022-11-16T09:52:43.886Z,100768.69
2022-11-16T09:55:23.848Z,100777.72
2022-11-16T09:57:56.748Z,100802.16
2022-11-16T10:00:25.592Z,100805.31
2022-11-16T10:03:01.878Z,100817.03
2022-11-16T10:05:34.094Z,100834.63
2022-11-16T10:08:09.685Z,100855.31
2022-11-16T10:10:39.610Z,100864.00
2022-11-16T10:13:19.449Z,100886.97
2022-11-16T10:16:05.071Z,100894.13
2022-11-16T10:18:48.480Z,100904.56
2022-11-16T10:21:37.254Z,100924.13
2022-11-16T10:24:25.365Z,100937.94
2022-11-16T10:27:03.418Z,100955.03
2022-11-16T10:29:43.792Z,100958.66
2022-11-16T10:32:21.378Z,100985.56
2022-11-16T10:34:51.740Z,100993.41
2022-11-16T10:37:19.904Z,100997.81
2022-11-16T10:39:48.700Z,101018.91
2022-11-16T10:42:22.942Z,101038.06
2022-11-16T10:44:58.176Z,101047.16
2022-11-16T10:47:34.061Z,101063.69
2022-11-16T10:50:04.374Z,101081.28
2022-11-16T10:52:31.645Z,101095.59
2022-11-16T10:54:58.937Z,101111.88
2022-11-16T10:57:53.245Z,101132.16
2022-11-16T11:00:35.068Z,101150.50
2022-11-16T11:03:02.783Z,101177.56
2022-11-16T11:05:30.495Z,101185.50
2022-11-16T11:08:02.212Z,101205.31
2022-11-16T11:10:31.243Z,101213.28
2022-11-16T11:13:17.499Z,101233.81
2022-11-16T11:15:46.258Z,101247.78
2022-11-16T11:18:19.096Z,101265.50
2022-11-16T11:20:48.992Z,101281.03
2022-11-16T11:23:18.857Z,101288.22
2022-11-16T11:25:53.530Z,101298.16
2022-11-16T11:28:24.487Z,101313.69
2022-11-16T11:30:57.388Z,101328.38
2022-11-16T11:33:26.186Z,101340.28
2022-11-16T11:36:01.919Z,101347.47
2022-11-16T11:38:29.827Z,101350.59
2022-11-16T11:40:59.257Z,101357.72
2022-11-16T11:43:28.726Z,101370.44
2022-11-16T11:46:05.935Z,101385.94
2022-11-16T11:48:49.377Z,101394.22
2022-11-16T11:51:24.012Z,101385.97
2022-11-16T11:53:56.460Z,101397.44
2022-11-16T11:56:24.683Z,101406.94
2022-11-16T11:58:52.649Z,101415.66
2022-11-16T12:01:47.683Z,101410.94
2022-11-16T12:05:14.566Z,101424.41
2022-11-16T12:07:55.563Z,101436.63
2022-11-16T12:10:34.716Z,101453.72
2022-11-16T12:13:20.632Z,101447.78
2022-11-16T12:16:02.278Z,101464.78
2022-11-16T12:18:47.416Z,101465.53
2022-11-16T12:21:17.812Z,101480.19
2022-11-16T12:23:59.899Z,101488.66
2022-11-16T12:26:36.475Z,101496.91
2022-11-16T12:29:20.572Z,101496.09
2022-11-16T12:32:08.939Z,101506.88
2022-11-16T12:34:52.102Z,101508.78
2022-11-16T12:37:28.560Z,101524.63
2022-11-16T12:40:14.408Z,101528.22
2022-11-16T12:42:49.632Z,101538.13
2022-11-16T12:45:32.190Z,101544.06
2022-11-16T12:48:28.801Z,101548.06
2022-11-16T12:51:02.767Z,101560.81
2022-11-16T12:53:51.506Z,101574.28
2022-11-16T12:56:29.372Z,101579.41
2022-11-16T12:59:21.960Z,101586.94
2022-11-16T13:02:00.611Z,101588.53
2022-11-16T13:04:33.732Z,101600.44
2022-11-16T13:07:11.204Z,101595.69
2022-11-16T13:09:43.515Z,101605.25
2022-11-16T13:12:15.732Z,101609.16
2022-11-16T13:14:46.900Z,101610.78
2022-11-16T13:17:20.464Z,101625.81
2022-11-16T13:20:18.514Z,101621.09
2022-11-16T13:22:55.548Z,101627.47
2022-11-16T13:25:30.895Z,101628.63
2022-11-16T13:28:06.287Z,101646.47
2022-11-16T13:30:44.381Z,101638.19
2022-11-16T13:33:27.326Z,101642.94
2022-11-16T13:35:55.955Z,101644.16
2022-11-16T13:38:52.462Z,101648.13
2022-11-16T13:41:31.668Z,101641.00
2022-11-16T13:43:59.400Z,101640.59
2022-11-16T13:46:55.395Z,101637.84
2022-11-16T13:49:27.556Z,101641.81
2022-11-16T13:52:03.445Z,101643.41
2022-11-16T13:54:48.799Z,101643.41
2022-11-16T13:57:23.724Z,101655.31
2022-11-16T14:00:09.644Z,101652.09
2022-11-16T14:02:38.655Z,101657.31
2022-11-16T14:05:14.785Z,101655.34
2022-11-16T14:07:43.402Z,101660.50
2022-11-16T14:10:32.742Z,101660.13
2022-11-16T14:13:00.630Z,101658.56
2022-11-16T14:15:33.685Z,101660.94
2022-11-16T14:18:31.894Z,101668.06
2022-11-16T14:21:02.207Z,101669.28
2022-11-16T14:23:54.404Z,101690.25
2022-11-16T14:26:33.192Z,101676.44
2022-11-16T14:29:35.124Z,101685.16
2022-11-16T14:32:04.463Z,101690.31
2022-11-16T14:34:39.891Z,101686.34
2022-11-16T14:37:12.797Z,101688.72
2022-11-16T14:39:42.469Z,101696.63
2022-11-16T14:42:18.472Z,101698.25
2022-11-16T14:44:47.474Z,101699.84
2022-11-16T14:47:23.208Z,101699.84
2022-11-16T14:49:51.302Z,101693.47
2022-11-16T14:52:23.878Z,101695.47
2022-11-16T14:54:55.015Z,101690.34
2022-11-16T14:57:24.099Z,101691.13
2022-11-16T15:00:08.679Z,101684.00
2022-11-16T15:02:36.995Z,101691.09
2022-11-16T15:05:05.147Z,101678.84
2022-11-16T15:07:32.790Z,101682.03
2022-11-16T15:10:00.858Z,101679.25
2022-11-16T15:12:38.843Z,101676.88
2022-11-16T15:15:13.159Z,101680.41
2022-11-16T15:17:42.197Z,101686.38
2022-11-16T15:20:17.308Z,101671.34
2022-11-16T15:22:46.335Z,101684.00
2022-11-16T15:25:25.651Z,101683.19
2022-11-16T15:27:55.307Z,101677.66
2022-11-16T15:30:24.925Z,101681.63
2022-11-16T15:32:53.478Z,101684.81
2022-11-16T15:35:23.643Z,101684.00
2022-11-16T15:38:01.329Z,101686.38
2022-11-16T15:40:29.689Z,101678.47
2022-11-16T15:43:00.308Z,101676.09
2022-11-16T15:45:28.497Z,101684.81
2022-11-16T15:47:58.169Z,101684.44
2022-11-16T15:50:25.532Z,101688.78
2022-11-16T15:52:54.225Z,101684.03
2022-11-16T15:55:29.730Z,101686.41
2022-11-16T15:58:15.326Z,101687.19
2022-11-16T16:00:47.695Z,101675.72
2022-11-16T16:03:22.120Z,101684.84
2022-11-16T16:05:50.645Z,101692.34
2022-11-16T16:08:27.778Z,101687.59
2022-11-16T16:11:03.778Z,101688.78
2022-11-16T16:13:35.590Z,101692.75
2022-11-16T16:16:30.660Z,101692.75
2022-11-16T16:19:03.798Z,101690.00
2022-11-16T16:21:46.203Z,101691.97
2022-11-16T16:24:35.729Z,101699.09
2022-11-16T16:27:08.933Z,101705.44
2022-11-16T16:29:37.613Z,101708.19
2022-11-16T16:32:05.568Z,101709.00
2022-11-16T16:34:36.469Z,101726.06
2022-11-16T16:37:05.196Z,101724.84
2022-11-16T16:39:32.483Z,101735.94
2022-11-16T16:42:00.182Z,101720.50
2022-11-16T16:44:27.399Z,101718.94
2022-11-16T16:46:55.969Z,101726.84
2022-11-16T16:49:23.227Z,101733.16
2022-11-16T16:51:50.447Z,101740.31
2022-11-16T16:54:17.839Z,101745.84
2022-11-16T16:56:45.175Z,101758.13
2022-11-16T16:59:13.685Z,101763.28
2022-11-16T17:01:41.210Z,101771.25
2022-11-16T17:04:09.906Z,101768.84
2022-11-16T17:06:38.536Z,101769.25
2022-11-16T17:09:07.641Z,101764.88
2022-11-16T17:11:35.097Z,101762.50
2022-11-16T17:14:02.378Z,101761.31
2022-11-16T17:16:29.771Z,101771.25
2022-11-16T17:18:57.328Z,101760.16
2022-11-16T17:21:25.977Z,101756.97
2022-11-16T17:23:53.915Z,101756.97
2022-11-16T17:26:21.418Z,101755.38
2022-11-16T17:28:48.691Z,101753.78
2022-11-16T17:31:15.951Z,101755.38
2022-11-16T17:33:43.308Z,101759.75
2022-11-16T17:36:12.158Z,101745.47
2022-11-16T17:38:40.762Z,101758.53
2022-11-16T17:41:10.282Z,101756.97
2022-11-16T17:43:37.777Z,101737.16
2022-11-16T17:46:07.060Z,101735.94
2022-11-16T17:48:34.871Z,101737.94
2022-11-16T17:51:02.157Z,101735.94
2022-11-16T17:53:32.848Z,101732.75
2022-11-16T17:56:01.799Z,101734.78
2022-11-16T17:58:29.545Z,101733.16
2022-11-16T18:00:57.696Z,101721.31
2022-11-16T18:03:25.691Z,101728.41
2022-11-16T18:05:52.859Z,101730.00
2022-11-16T18:08:20.141Z,101719.28
2022-11-16T18:10:47.417Z,101711.78
2022-11-16T18:13:15.996Z,101701.47
2022-11-16T18:15:43.222Z,101693.56
2022-11-16T18:18:10.545Z,101681.25
2022-11-16T18:20:37.976Z,101670.16
2022-11-16T18:23:05.170Z,101662.66
2022-11-16T18:25:34.037Z,101665.81
2022-11-16T18:28:01.286Z,101653.13
2022-11-16T18:30:30.035Z,101646.75
2022-11-16T18:32:57.236Z,101630.91
2022-11-16T18:35:24.645Z,101619.00
2022-11-16T18:37:52.024Z,101613.06
2022-11-16T18:40:19.231Z,101589.69
2022-11-16T18:42:46.439Z,101576.22
2022-11-16T18:45:13.663Z,101573.44
2022-11-16T18:47:42.458Z,101560.38
2022-11-16T18:50:16.363Z,101555.59
2022-11-16T18:52:46.423Z,101527.84
2022-11-16T18:55:13.757Z,101512.38
2022-11-16T18:57:40.975Z,101482.69
2022-11-16T19:00:10.384Z,101455.31
2022-11-16T19:02:37.803Z,101446.97
2022-11-16T19:05:07.582Z,101437.47
2022-11-16T19:07:35.064Z,101425.97
2022-11-16T19:10:02.486Z,101417.22
2022-11-16T19:12:29.904Z,101401.41
2022-11-16T19:14:57.122Z,101393.09
2022-11-16T19:17:24.330Z,101371.31
2022-11-16T19:19:51.600Z,101346.38
2022-11-16T19:22:20.154Z,101348.78
2022-11-16T19:24:47.307Z,101331.34
2022-11-16T19:27:14.570Z,101336.94
2022-11-16T19:29:41.932Z,101319.53
2022-11-16T19:32:09.164Z,101326.66
2022-11-16T19:34:36.435Z,101317.22
2022-11-16T19:37:03.648Z,101320.38
2022-11-16T19:39:32.207Z,101308.09
2022-11-16T19:41:59.486Z,101312.03
2022-11-16T19:44:26.731Z,101302.94
2022-11-16T19:46:53.959Z,101305.31
2022-11-16T19:49:21.248Z,101295.81
2022-11-16T19:51:48.660Z,101277.56
2022-11-16T19:54:15.848Z,101272.78
2022-11-16T19:56:44.554Z,101245.13
2022-11-16T19:59:11.843Z,101220.16
2022-11-16T20:01:39.043Z,101215.44
2022-11-16T20:04:06.336Z,101200.78
2022-11-16T20:06:35.266Z,101192.81
2022-11-16T20:09:04.905Z,101172.25
2022-11-16T20:11:32.904Z,101165.13
2022-11-16T20:14:02.886Z,101135.03
2022-11-16T20:16:38.112Z,101108.09
2022-11-16T20:19:06.303Z,101094.19
2022-11-16T20:21:35.263Z,101083.53
2022-11-16T20:24:06.802Z,101045.84
2022-11-16T20:26:36.412Z,101005.94
2022-11-16T20:29:05.035Z,100979.75
2022-11-16T20:31:33.337Z,100954.38
2022-11-16T20:34:02.392Z,100921.91
2022-11-16T20:36:32.114Z,100891.03
2022-11-16T20:39:00.418Z,100866.94
2022-11-16T20:41:29.601Z,100847.47
2022-11-16T20:43:58.157Z,100807.44
2022-11-16T20:46:28.284Z,100786.53
2022-11-16T20:48:56.552Z,100765.56
2022-11-16T20:51:23.916Z,100739.34
2022-11-16T20:53:51.425Z,100704.03
2022-11-16T20:56:19.574Z,100670.53
2022-11-16T20:58:47.281Z,100639.97
2022-11-16T21:01:16.357Z,100603.63
2022-11-16T21:03:45.214Z,100584.22
2022-11-16T21:06:13.559Z,100567.16
2022-11-16T21:08:41.498Z,100547.34
2022-11-16T21:11:12.388Z,100518.91
2022-11-16T21:13:39.587Z,100511.72
2022-11-16T21:16:08.867Z,100497.94
2022-11-16T21:18:36.221Z,100485.59
2022-11-16T21:21:06.203Z,100472.56
2022-11-16T21:23:35.646Z,100470.50
2022-11-16T21:26:04.113Z,100453.88
2022-11-16T21:28:31.594Z,100430.97
2022-11-16T21:31:01.087Z,100434.47
2022-11-16T21:33:28.577Z,100412.72
2022-11-16T21:35:56.205Z,100419.47
2022-11-16T21:38:25.561Z,100410.03
2022-11-16T21:40:52.864Z,100396.00
2022-11-16T21:43:20.187Z,100377.88
2022-11-16T21:45:48.379Z,100374.72
2022-11-16T21:48:15.648Z,100363.25
2022-11-16T21:50:43.305Z,100352.94
2022-11-16T21:53:10.918Z,100341.44
2022-11-16T21:55:39.524Z,100323.31
2022-11-16T21:58:06.753Z,100330.34
2022-11-16T22:00:34.015Z,100318.03
2022-11-16T22:03:01.262Z,100307.47
2022-11-16T22:05:28.657Z,100311.72
2022-11-16T22:07:55.980Z,100301.84
2022-11-16T22:10:23.231Z,100293.63
2022-11-16T22:12:51.786Z,100288.50
2022-11-16T22:15:18.991Z,100270.66
2022-11-16T22:17:46.193Z,100265.19
2022-11-16T22:20:13.374Z,100255.34
2022-11-16T22:22:40.584Z,100247.81
2022-11-16T22:25:08.382Z,100239.50
2022-11-16T22:27:52.119Z,100231.19
2022-11-16T22:30:24.377Z,100226.84
2022-11-16T22:32:51.657Z,100233.25
2022-11-16T22:35:18.889Z,100223.63
2022-11-16T22:37:46.092Z,100212.63
2022-11-16T22:40:17.626Z,100209.41
2022-11-16T22:42:45.955Z,100213.41
2022-11-16T22:45:13.190Z,100208.66
2022-11-16T22:47:41.793Z,100212.72
2022-11-16T22:50:09.388Z,100198.50
2022-11-16T22:52:36.719Z,100205.81
2022-11-16T22:55:04.602Z,100199.19
2022-11-16T22:57:31.839Z,100186.66
2022-11-16T22:59:59.051Z,100193.66
2022-11-16T23:02:26.238Z,100187.50
2022-11-16T23:04:54.801Z,100182.41
2022-11-16T23:07:22.166Z,100173.91
2022-11-16T23:13:33.355Z,100132.88
2022-11-16T23:16:03.897Z,100123.28
2022-11-16T23:18:31.647Z,100110.88
2022-11-16T23:21:00.245Z,100107.78
2022-11-16T23:23:27.431Z,100096.59
2022-11-16T23:25:54.645Z,100092.72
2022-11-16T23:28:22.038Z,100092.28
2022-11-16T23:30:49.247Z,100099.06
2022-11-16T23:33:16.491Z,100100.59
2022-11-16T23:35:43.720Z,100082.00
2022-11-16T23:38:12.267Z,100075.22
2022-11-16T23:40:40.143Z,100079.97
2022-11-16T23:43:10.179Z,100083.88
2022-11-16T23:45:37.688Z,100074.88
2022-11-16T23:48:06.131Z,100089.41
2022-11-16T23:50:33.738Z,100082.09
2022-11-16T23:53:00.949Z,100076.88
2022-11-16T23:55:31.496Z,100083.19
2022-11-16T23:57:59.236Z,100072.88
